createdAt,value
2023-03-25T00:01:44.908Z,1.73
2023-03-25T00:04:15.736Z,1.40
2023-03-25T00:06:46.737Z,1.83
2023-03-25T00:09:18.812Z,1.70
2023-03-25T00:11:49.177Z,1.50
2023-03-25T00:14:20.204Z,1.20
2023-03-25T00:16:55.096Z,1.48
2023-03-25T00:19:27.082Z,1.60
2023-03-25T00:21:57.892Z,1.00
2023-03-25T00:24:29.723Z,1.20
2023-03-25T00:26:59.970Z,1.27
2023-03-25T00:29:30.615Z,1.55
2023-03-25T00:32:01.357Z,1.95
2023-03-25T00:34:32.018Z,1.30
2023-03-25T00:37:03.348Z,1.40
2023-03-25T00:39:34.112Z,1.15
2023-03-25T00:42:04.784Z,0.98
2023-03-25T00:44:35.132Z,0.77
2023-03-25T00:47:05.495Z,0.95
2023-03-25T00:49:35.834Z,0.90
2023-03-25T00:52:06.221Z,0.68
2023-03-25T00:54:36.959Z,0.90
2023-03-25T00:57:07.765Z,0.90
2023-03-25T00:59:38.530Z,1.30
2023-03-25T01:02:09.481Z,1.00
2023-03-25T01:04:43.018Z,1.17
2023-03-25T01:07:18.042Z,0.95
2023-03-25T01:09:49.240Z,1.33
2023-03-25T01:12:20.792Z,1.38
2023-03-25T01:14:51.529Z,1.23
2023-03-25T01:17:22.671Z,0.80
2023-03-25T01:19:53.738Z,0.95
2023-03-25T01:22:24.046Z,1.20
2023-03-25T01:24:54.442Z,1.10
2023-03-25T01:27:26.696Z,0.70
2023-03-25T01:29:57.591Z,0.80
2023-03-25T01:32:28.526Z,1.20
2023-03-25T01:34:58.992Z,1.05
2023-03-25T01:37:29.416Z,0.77
2023-03-25T01:40:00.152Z,1.25
2023-03-25T01:42:30.378Z,1.10
2023-03-25T01:45:22.639Z,1.08
2023-03-25T01:48:01.404Z,0.90
2023-03-25T01:50:35.758Z,0.93
2023-03-25T01:53:09.510Z,1.00
2023-03-25T01:55:41.970Z,0.90
2023-03-25T01:58:15.626Z,1.02
2023-03-25T02:00:50.603Z,0.85
2023-03-25T02:03:25.645Z,1.10
2023-03-25T02:06:09.862Z,1.35
2023-03-25T02:08:43.713Z,0.95
2023-03-25T02:11:14.839Z,1.75
2023-03-25T02:13:45.367Z,0.88
2023-03-25T02:16:37.458Z,0.85
2023-03-25T02:19:24.221Z,0.98
2023-03-25T02:22:13.913Z,1.08
2023-03-25T02:25:08.423Z,0.88
2023-03-25T02:28:01.120Z,1.15
2023-03-25T02:30:53.596Z,0.80
2023-03-25T02:33:53.161Z,1.20
2023-03-25T02:37:04.455Z,1.25
2023-03-25T02:39:45.723Z,0.70
2023-03-25T02:42:16.528Z,0.90
2023-03-25T02:45:05.086Z,1.10
2023-03-25T02:47:44.118Z,1.00
2023-03-25T02:50:20.047Z,0.85
2023-03-25T02:52:54.737Z,1.10
2023-03-25T02:55:27.272Z,1.13
2023-03-25T02:57:59.007Z,1.27
2023-03-25T03:00:31.562Z,0.80
2023-03-25T03:03:04.338Z,1.48
2023-03-25T03:05:46.930Z,1.00
2023-03-25T03:08:32.714Z,1.25
2023-03-25T03:11:24.380Z,1.33
2023-03-25T03:14:32.573Z,0.98
2023-03-25T03:17:49.420Z,1.00
2023-03-25T03:20:34.266Z,1.10
2023-03-25T03:23:35.848Z,1.25
2023-03-25T03:26:22.082Z,1.25
2023-03-25T03:29:06.444Z,0.90
2023-03-25T03:32:06.654Z,1.13
2023-03-25T03:34:49.543Z,1.17
2023-03-25T03:37:32.541Z,1.20
2023-03-25T03:40:06.841Z,1.38
2023-03-25T03:43:10.698Z,1.73
2023-03-25T03:45:51.656Z,1.38
2023-03-25T03:48:43.491Z,1.30
2023-03-25T03:51:32.831Z,1.00
2023-03-25T03:54:30.416Z,1.42
2023-03-25T03:57:11.109Z,1.92
2023-03-25T03:59:56.756Z,1.77
2023-03-25T04:02:30.515Z,1.65
2023-03-25T04:05:02.977Z,1.30
2023-03-25T04:08:00.238Z,1.40
2023-03-25T04:10:37.021Z,1.00
2023-03-25T04:13:13.104Z,1.30
2023-03-25T04:15:45.031Z,1.10
2023-03-25T04:18:16.226Z,1.40
2023-03-25T04:20:53.746Z,1.77
2023-03-25T04:23:24.774Z,1.27
2023-03-25T04:25:55.681Z,1.38
2023-03-25T04:28:29.674Z,1.20
2023-03-25T04:31:02.720Z,1.13
2023-03-25T04:33:35.027Z,0.98
2023-03-25T04:36:06.053Z,1.00
2023-03-25T04:38:36.776Z,0.90
2023-03-25T04:41:09.156Z,1.33
2023-03-25T04:43:41.732Z,1.35
2023-03-25T04:46:18.341Z,1.55
2023-03-25T04:48:51.103Z,1.17
2023-03-25T04:51:22.196Z,1.20
2023-03-25T04:53:53.437Z,1.02
2023-03-25T04:56:25.505Z,1.15
2023-03-25T04:58:57.100Z,1.00
2023-03-25T05:01:33.041Z,1.35
2023-03-25T05:04:11.007Z,1.15
2023-03-25T05:06:44.841Z,0.98
2023-03-25T05:09:18.525Z,0.90
2023-03-25T05:11:50.631Z,1.10
2023-03-25T05:14:23.173Z,1.27
2023-03-25T05:16:54.204Z,1.30
2023-03-25T05:19:25.179Z,1.13
2023-03-25T05:21:58.444Z,1.25
2023-03-25T05:24:30.599Z,1.15
2023-03-25T05:27:05.554Z,1.20
2023-03-25T05:29:36.320Z,1.38
2023-03-25T05:32:07.065Z,1.02
2023-03-25T05:34:38.030Z,1.02
2023-03-25T05:37:09.164Z,0.90
2023-03-25T05:39:40.196Z,1.92
2023-03-25T05:42:29.840Z,1.17
2023-03-25T05:45:01.798Z,0.88
2023-03-25T05:47:34.832Z,0.80
2023-03-25T05:50:05.943Z,1.35
2023-03-25T05:52:36.683Z,1.00
2023-03-25T05:55:08.687Z,0.90
2023-03-25T05:57:39.478Z,1.00
2023-03-25T06:00:11.205Z,1.02
2023-03-25T06:02:45.659Z,1.10
2023-03-25T06:05:18.132Z,0.90
2023-03-25T06:07:50.234Z,0.68
2023-03-25T06:10:21.955Z,1.13
2023-03-25T06:12:56.903Z,0.90
2023-03-25T06:15:35.684Z,0.80
2023-03-25T06:18:06.436Z,0.88
2023-03-25T06:20:37.279Z,1.23
2023-03-25T06:23:09.912Z,0.70
2023-03-25T06:25:41.587Z,0.77
2023-03-25T06:28:12.744Z,0.90
2023-03-25T06:30:43.736Z,0.90
2023-03-25T06:33:16.973Z,1.23
2023-03-25T06:36:08.685Z,0.73
2023-03-25T06:38:39.646Z,0.90
2023-03-25T06:41:12.653Z,0.88
2023-03-25T06:43:44.819Z,0.63
2023-03-25T06:46:15.464Z,0.73
2023-03-25T06:48:46.022Z,0.93
2023-03-25T06:51:16.831Z,0.90
2023-03-25T06:53:47.833Z,1.55
2023-03-25T06:56:18.681Z,1.38
2023-03-25T06:58:49.337Z,0.90
2023-03-25T07:01:19.637Z,1.17
2023-03-25T07:03:50.405Z,1.38
2023-03-25T07:06:23.388Z,0.70
2023-03-25T07:08:54.515Z,0.98
2023-03-25T07:11:31.060Z,0.75
2023-03-25T07:16:32.108Z,1.40
2023-03-25T07:19:02.549Z,0.98
2023-03-25T07:21:32.891Z,0.70
2023-03-25T07:24:03.363Z,0.95
2023-03-25T07:26:35.706Z,1.08
2023-03-25T07:29:06.725Z,0.80
2023-03-25T07:31:37.219Z,1.02
2023-03-25T07:34:09.539Z,0.52
2023-03-25T07:36:40.276Z,0.60
2023-03-25T07:39:10.786Z,0.60
2023-03-25T07:41:41.253Z,1.02
2023-03-25T07:44:12.338Z,0.68
2023-03-25T07:46:44.969Z,0.95
2023-03-25T07:49:16.000Z,1.50
2023-03-25T07:51:47.852Z,1.25
2023-03-25T07:54:18.203Z,0.82
2023-03-25T07:56:48.612Z,1.02
2023-03-25T07:59:19.151Z,0.65
2023-03-25T08:01:49.587Z,1.27
2023-03-25T08:04:20.081Z,0.50
2023-03-25T08:06:50.431Z,1.23
2023-03-25T08:09:21.257Z,0.93
2023-03-25T08:11:53.101Z,0.77
2023-03-25T08:14:23.862Z,0.65
2023-03-25T08:16:54.312Z,0.60
2023-03-25T08:19:25.245Z,0.80
2023-03-25T08:21:55.579Z,0.52
2023-03-25T08:24:28.767Z,1.10
2023-03-25T08:26:59.426Z,0.60
2023-03-25T08:29:31.704Z,0.90
2023-03-25T08:32:02.236Z,0.65
2023-03-25T08:34:36.478Z,0.70
2023-03-25T08:37:07.070Z,0.63
2023-03-25T08:39:41.417Z,1.40
2023-03-25T08:42:14.663Z,0.80
2023-03-25T08:44:45.287Z,0.65
2023-03-25T08:47:15.685Z,0.85
2023-03-25T08:49:46.335Z,0.93
2023-03-25T08:52:18.026Z,0.93
2023-03-25T08:54:48.857Z,1.58
2023-03-25T08:57:19.874Z,0.73
2023-03-25T08:59:50.477Z,0.73
2023-03-25T09:02:20.746Z,0.98
2023-03-25T09:04:56.273Z,1.15
2023-03-25T09:07:30.342Z,1.00
2023-03-25T09:10:00.900Z,0.80
2023-03-25T09:12:31.558Z,0.57
2023-03-25T09:15:01.955Z,0.98
2023-03-25T09:17:32.710Z,0.90
2023-03-25T09:20:03.850Z,0.95
2023-03-25T09:22:34.076Z,1.00
2023-03-25T09:25:04.398Z,1.30
2023-03-25T09:27:34.934Z,1.05
2023-03-25T09:30:07.375Z,1.20
2023-03-25T09:32:37.885Z,1.10
2023-03-25T09:35:09.384Z,1.00
2023-03-25T09:37:39.671Z,0.98
2023-03-25T09:40:10.907Z,0.65
2023-03-25T09:43:06.688Z,1.08
2023-03-25T09:45:52.075Z,0.70
2023-03-25T09:48:31.882Z,0.70
2023-03-25T09:51:10.603Z,0.95
2023-03-25T09:53:57.658Z,0.85
2023-03-25T09:56:32.387Z,1.38
2023-03-25T09:59:29.011Z,0.88
2023-03-25T10:03:03.500Z,0.80
2023-03-25T10:05:34.760Z,1.73
2023-03-25T10:08:35.897Z,1.08
2023-03-25T10:11:26.271Z,1.15
2023-03-25T10:14:13.226Z,0.93
2023-03-25T10:16:56.955Z,1.23
2023-03-25T10:19:56.509Z,1.15
2023-03-25T10:23:11.236Z,0.47
2023-03-25T10:25:49.784Z,0.70
2023-03-25T10:28:28.232Z,1.63
2023-03-25T10:30:58.618Z,0.52
2023-03-25T10:33:38.788Z,0.82
2023-03-25T10:36:16.949Z,0.82
2023-03-25T10:38:51.097Z,0.70
2023-03-25T10:41:41.141Z,0.98
2023-03-25T10:44:14.071Z,0.90
2023-03-25T10:47:05.598Z,0.75
2023-03-25T10:49:39.180Z,0.90
2023-03-25T10:52:09.876Z,0.70
2023-03-25T10:54:44.638Z,0.90
2023-03-25T10:57:34.516Z,1.05
2023-03-25T11:00:21.881Z,0.70
2023-03-25T11:02:53.336Z,0.80
2023-03-25T11:05:28.064Z,0.93
2023-03-25T11:08:11.941Z,0.93
2023-03-25T11:10:53.312Z,0.95
2023-03-25T11:13:28.804Z,0.90
2023-03-25T11:16:04.039Z,0.90
2023-03-25T11:18:42.432Z,0.95
2023-03-25T11:21:16.210Z,1.67
2023-03-25T11:23:50.241Z,1.23
2023-03-25T11:26:25.438Z,0.80
2023-03-25T11:29:04.716Z,1.17
2023-03-25T11:31:40.068Z,1.23
2023-03-25T11:34:24.145Z,1.17
2023-03-25T11:37:21.797Z,1.05
2023-03-25T11:39:57.197Z,0.93
2023-03-25T11:42:44.272Z,1.13
2023-03-25T11:45:24.742Z,1.13
2023-03-25T11:48:00.498Z,0.88
2023-03-25T11:50:33.805Z,0.75
2023-03-25T11:53:06.992Z,2.42
2023-03-25T11:55:57.132Z,0.73
2023-03-25T11:58:36.774Z,0.70
2023-03-25T12:01:29.197Z,1.10
2023-03-25T12:04:22.943Z,0.90
2023-03-25T12:07:03.744Z,0.90
2023-03-25T12:09:37.437Z,0.82
2023-03-25T12:12:31.733Z,1.00
2023-03-25T12:15:25.713Z,1.00
2023-03-25T12:18:26.932Z,1.38
2023-03-25T12:21:20.117Z,2.67
2023-03-25T12:24:14.108Z,1.23
2023-03-25T12:26:47.993Z,0.80
2023-03-25T12:29:40.209Z,0.85
2023-03-25T12:32:42.211Z,1.35
2023-03-25T12:35:35.951Z,1.13
2023-03-25T12:38:31.765Z,0.90
2023-03-25T12:41:30.523Z,0.98
2023-03-25T12:44:05.825Z,1.20
2023-03-25T12:47:12.108Z,1.02
2023-03-25T12:50:07.570Z,1.02
2023-03-25T12:52:47.298Z,1.20
2023-03-25T12:55:37.547Z,0.85
2023-03-25T12:58:33.395Z,0.95
2023-03-25T13:01:38.499Z,1.20
2023-03-25T13:04:21.090Z,1.00
2023-03-25T13:07:17.631Z,1.00
2023-03-25T13:10:21.565Z,1.00
2023-03-25T13:13:03.416Z,0.90
2023-03-25T13:15:49.444Z,1.00
2023-03-25T13:18:36.032Z,1.45
2023-03-25T13:21:30.198Z,1.77
2023-03-25T13:24:27.711Z,1.00
2023-03-25T13:27:00.013Z,1.85
2023-03-25T13:29:39.820Z,1.42
2023-03-25T13:32:24.407Z,1.48
2023-03-25T13:35:01.342Z,1.40
2023-03-25T13:40:31.101Z,1.60
2023-03-25T13:43:09.425Z,1.80
2023-03-25T13:46:19.583Z,1.60
2023-03-25T13:49:06.851Z,1.45
2023-03-25T13:51:39.191Z,2.08
2023-03-25T13:54:10.140Z,2.35
2023-03-25T13:56:43.815Z,2.30
2023-03-25T13:59:35.811Z,2.53
2023-03-25T14:02:35.180Z,2.25
2023-03-25T14:05:25.063Z,2.72
2023-03-25T14:08:32.941Z,2.42
2023-03-25T14:11:21.906Z,2.67
2023-03-25T14:14:11.354Z,3.13
2023-03-25T14:16:49.928Z,2.40
2023-03-25T14:19:32.834Z,2.63
2023-03-25T14:22:14.341Z,2.40
2023-03-25T14:24:46.583Z,3.10
2023-03-25T14:27:37.582Z,2.65
2023-03-25T14:30:27.266Z,1.80
2023-03-25T14:33:06.474Z,2.63
2023-03-25T14:35:38.645Z,2.20
2023-03-25T14:38:14.429Z,1.92
2023-03-25T14:41:01.303Z,2.43
2023-03-25T14:43:42.187Z,2.40
2023-03-25T14:46:16.378Z,2.33
2023-03-25T14:49:15.640Z,2.20
2023-03-25T14:51:48.365Z,2.25
2023-03-25T14:54:38.144Z,2.05
2023-03-25T14:57:19.816Z,2.72
2023-03-25T15:00:19.101Z,1.70
2023-03-25T15:03:01.030Z,1.85
2023-03-25T15:05:34.951Z,1.65
2023-03-25T15:08:08.992Z,1.35
2023-03-25T15:10:51.390Z,1.70
2023-03-25T15:13:27.300Z,1.30
2023-03-25T15:16:26.850Z,1.37
2023-03-25T15:18:57.647Z,1.63
2023-03-25T15:21:32.960Z,1.95
2023-03-25T15:24:13.718Z,1.40
2023-03-25T15:26:47.898Z,1.77
2023-03-25T15:29:30.220Z,1.52
2023-03-25T15:32:39.929Z,1.60
2023-03-25T15:35:33.955Z,1.20
2023-03-25T15:38:19.355Z,1.67
2023-03-25T15:41:16.895Z,1.58
2023-03-25T15:44:10.557Z,1.33
2023-03-25T15:47:06.231Z,1.13
2023-03-25T15:50:00.493Z,1.60
2023-03-25T15:52:58.900Z,1.00
2023-03-25T15:55:39.941Z,1.15
2023-03-25T15:58:28.008Z,1.30
2023-03-25T16:01:14.738Z,0.90
2023-03-25T16:03:46.689Z,0.80
2023-03-25T16:06:20.104Z,1.73
2023-03-25T16:08:52.468Z,1.20
2023-03-25T16:11:24.181Z,1.13
2023-03-25T16:14:15.823Z,1.23
2023-03-25T16:16:55.260Z,0.88
2023-03-25T16:19:45.118Z,1.00
2023-03-25T16:22:32.921Z,1.10
2023-03-25T16:25:11.186Z,1.10
2023-03-25T16:27:47.023Z,1.30
2023-03-25T16:30:30.600Z,1.88
2023-03-25T16:33:13.028Z,1.45
2023-03-25T16:35:53.261Z,1.05
2023-03-25T16:38:29.188Z,1.23
2023-03-25T16:41:09.835Z,2.03
2023-03-25T16:43:40.698Z,1.38
2023-03-25T16:46:14.605Z,2.00
2023-03-25T16:48:54.936Z,1.05
2023-03-25T16:51:38.696Z,1.20
2023-03-25T16:54:20.451Z,1.83
2023-03-25T16:56:51.407Z,1.30
2023-03-25T16:59:40.402Z,1.10
2023-03-25T17:02:26.461Z,1.50
2023-03-25T17:04:58.745Z,1.10
2023-03-25T17:07:31.397Z,0.90
2023-03-25T17:10:03.318Z,0.70
2023-03-25T17:12:34.852Z,1.10
2023-03-25T17:15:10.964Z,1.00
2023-03-25T17:18:15.289Z,1.80
2023-03-25T17:20:51.440Z,0.70
2023-03-25T17:23:44.906Z,0.90
2023-03-25T17:26:19.138Z,0.80
2023-03-25T17:29:09.487Z,0.80
2023-03-25T17:31:42.829Z,1.02
2023-03-25T17:34:21.757Z,0.70
2023-03-25T17:36:59.746Z,0.95
2023-03-25T17:39:34.830Z,1.00
2023-03-25T17:42:15.731Z,1.23
2023-03-25T17:44:47.739Z,0.70
2023-03-25T17:47:20.240Z,0.80
2023-03-25T17:49:53.060Z,0.65
2023-03-25T17:52:23.385Z,0.75
2023-03-25T17:54:54.052Z,1.15
2023-03-25T17:57:24.378Z,1.13
2023-03-25T17:59:59.628Z,0.75
2023-03-25T18:02:30.569Z,0.73
2023-03-25T18:05:00.954Z,0.80
2023-03-25T18:07:31.588Z,1.50
2023-03-25T18:10:02.689Z,1.15
2023-03-25T18:12:32.968Z,1.05
2023-03-25T18:15:03.361Z,1.00
2023-03-25T18:17:34.985Z,1.50
2023-03-25T18:20:14.813Z,1.63
2023-03-25T18:22:45.896Z,1.10
2023-03-25T18:25:16.897Z,1.00
2023-03-25T18:27:55.576Z,0.90
2023-03-25T18:30:40.726Z,0.98
2023-03-25T18:33:11.420Z,0.73
2023-03-25T18:35:42.315Z,1.00
2023-03-25T18:38:42.773Z,1.00
2023-03-25T18:41:16.409Z,0.88
2023-03-25T18:43:47.273Z,0.90
2023-03-25T18:46:18.575Z,0.80
2023-03-25T18:48:49.012Z,1.00
2023-03-25T18:51:19.376Z,1.00
2023-03-25T18:53:51.072Z,1.02
2023-03-25T18:56:22.485Z,1.10
2023-03-25T18:58:53.120Z,1.52
2023-03-25T19:01:24.680Z,0.90
2023-03-25T19:03:54.982Z,1.20
2023-03-25T19:06:25.544Z,1.00
2023-03-25T19:08:55.801Z,1.10
2023-03-25T19:11:32.844Z,0.90
2023-03-25T19:14:03.140Z,1.42
2023-03-25T19:16:34.062Z,0.80
2023-03-25T19:19:04.336Z,0.98
2023-03-25T19:21:35.036Z,1.05
2023-03-25T19:24:05.409Z,1.13
2023-03-25T19:26:35.774Z,1.00
2023-03-25T19:29:06.127Z,1.00
2023-03-25T19:31:36.872Z,1.10
2023-03-25T19:34:07.756Z,1.10
2023-03-25T19:36:38.143Z,1.17
2023-03-25T19:39:08.775Z,1.60
2023-03-25T19:41:44.437Z,1.10
2023-03-25T19:44:16.131Z,1.00
2023-03-25T19:46:46.996Z,1.40
2023-03-25T19:49:25.916Z,1.13
2023-03-25T19:52:03.454Z,1.80
2023-03-25T19:54:33.681Z,1.10
2023-03-25T19:57:04.345Z,1.08
2023-03-25T19:59:34.722Z,0.95
2023-03-25T20:02:05.680Z,1.60
2023-03-25T20:04:38.313Z,1.15
2023-03-25T20:07:08.850Z,1.10
2023-03-25T20:09:40.789Z,1.08
2023-03-25T20:12:12.280Z,1.20
2023-03-25T20:14:43.227Z,1.23
2023-03-25T20:17:13.710Z,0.77
2023-03-25T20:19:44.089Z,1.10
2023-03-25T20:22:24.208Z,0.80
2023-03-25T20:24:57.190Z,1.02
2023-03-25T20:27:27.838Z,1.75
2023-03-25T20:29:59.193Z,0.90
2023-03-25T20:32:39.913Z,0.90
2023-03-25T20:35:14.675Z,1.10
2023-03-25T20:37:46.657Z,1.00
2023-03-25T20:40:20.826Z,1.50
2023-03-25T20:42:56.189Z,0.80
2023-03-25T20:45:31.002Z,1.15
2023-03-25T20:48:02.173Z,0.75
2023-03-25T20:50:32.575Z,1.48
2023-03-25T20:53:03.102Z,1.20
2023-03-25T20:55:33.933Z,0.98
2023-03-25T20:58:04.320Z,0.90
2023-03-25T21:00:35.866Z,0.70
2023-03-25T21:03:06.808Z,0.80
2023-03-25T21:05:37.664Z,0.90
2023-03-25T21:08:09.262Z,0.75
2023-03-25T21:10:40.274Z,0.70
2023-03-25T21:13:10.853Z,0.65
2023-03-25T21:15:42.728Z,0.75
2023-03-25T21:18:16.453Z,0.80
2023-03-25T21:20:54.972Z,0.70
2023-03-25T21:23:29.894Z,0.80
2023-03-25T21:26:02.482Z,0.88
2023-03-25T21:28:33.891Z,0.85
2023-03-25T21:31:21.254Z,0.95
2023-03-25T21:33:54.239Z,0.73
2023-03-25T21:36:29.749Z,0.43
2023-03-25T21:39:02.176Z,0.40
2023-03-25T21:41:32.901Z,0.68
2023-03-25T21:44:03.619Z,0.65
2023-03-25T21:46:38.390Z,0.65
2023-03-25T21:49:38.233Z,0.70
2023-03-25T21:52:14.864Z,0.65
2023-03-25T21:54:45.537Z,1.15
2023-03-25T21:57:16.332Z,0.57
2023-03-25T21:59:46.685Z,0.60
2023-03-25T22:02:19.218Z,0.60
2023-03-25T22:04:49.997Z,0.40
2023-03-25T22:07:20.365Z,0.50
2023-03-25T22:09:51.191Z,0.80
2023-03-25T22:12:21.536Z,0.32
2023-03-25T22:14:52.054Z,0.40
2023-03-25T22:17:22.420Z,0.30
2023-03-25T22:19:53.003Z,0.25
2023-03-25T22:22:57.917Z,0.40
2023-03-25T22:25:29.870Z,0.50
2023-03-25T22:28:01.128Z,0.68
2023-03-25T22:30:31.898Z,0.30
2023-03-25T22:33:02.470Z,0.30
2023-03-25T22:35:33.569Z,0.68
2023-03-25T22:38:04.315Z,0.30
2023-03-25T22:40:36.324Z,0.40
2023-03-25T22:43:06.629Z,0.70
2023-03-25T22:45:37.243Z,0.32
2023-03-25T22:48:07.842Z,0.43
2023-03-25T22:50:38.208Z,0.40
2023-03-25T22:53:08.479Z,0.63
2023-03-25T22:55:39.658Z,0.52
2023-03-25T22:58:10.048Z,1.25
2023-03-25T23:00:40.317Z,0.40
2023-03-25T23:03:12.805Z,0.90
2023-03-25T23:05:57.405Z,0.55
2023-03-25T23:08:33.189Z,1.13
2023-03-25T23:11:09.441Z,1.17
2023-03-25T23:13:40.191Z,0.50
2023-03-25T23:16:14.714Z,0.40
2023-03-25T23:18:45.886Z,0.40
2023-03-25T23:21:27.599Z,0.63
2023-03-25T23:24:00.234Z,0.75
2023-03-25T23:26:38.311Z,0.70
2023-03-25T23:29:11.622Z,0.30
2023-03-25T23:31:44.508Z,0.50
2023-03-25T23:34:19.538Z,0.75
2023-03-25T23:36:50.804Z,0.60
2023-03-25T23:39:24.303Z,1.08
2023-03-25T23:41:54.790Z,1.75
2023-03-25T23:44:25.136Z,0.85
2023-03-25T23:46:55.904Z,0.50
2023-03-25T23:49:26.326Z,0.95
2023-03-25T23:51:56.864Z,0.52
2023-03-25T23:54:27.447Z,0.60
2023-03-25T23:56:57.974Z,1.02
2023-03-25T23:59:28.863Z,0.57
